No.3tokuyomaru — JD3132 — position and weather

sailwx.info

Track history (hours):
 
Tides and Currents Weather Stations Pressure Air Temp Water Temp Dewpoint Dewpoint Depression Visibility Wind Speed Wind Dir Waves Ship Positions

No.3tokuyomaru

Last reported at 2017-Aug-17 10:02 UTC. Time now 2017-Aug-19 01:57 UTC.
Position N 35°02' E 139°32'.

Length 67 m; draft 4.5 m.

Type: Tanker. MMSI: 431002151.

Date/timePositionNaut miles runAvg speedWind from/ knotsBaromVisibWave heightAir tempDewpointWater temp
2017-Aug-17 10:02N 35°02' E 139°32'112.7
2017-Aug-17 10:00N 35°03' E 139°33'612.9
2017-Aug-17 09:30N 35°06' E 139°40'713.0
2017-Aug-17 09:00N 35°11' E 139°45'711.9
2017-Aug-17 08:25N 35°18' E 139°44'512.7
2017-Aug-17 08:00N 35°23' E 139°42'612.5
2017-Aug-17 07:30N 35°27' E 139°48'612.8
2017-Aug-17 07:00N 35°31' E 139°54'2 0.1
2017-Aug-16 09:12N 35°28' E 139°54'210.8
2017-Aug-16 09:00N 35°28' E 139°51'611.3
2017-Aug-16 08:30N 35°24' E 139°46'611.5
2017-Aug-16 08:01N 35°19' E 139°44'510.9
2017-Aug-16 07:30N 35°14' E 139°47'510.7
2017-Aug-16 07:00N 35°09' E 139°45'510.9
2017-Aug-16 06:30N 35°04' E 139°42'611.3
2017-Aug-16 06:00N 35°01' E 139°36'  
2017-Aug-11 05:51N 34°37' E 134°57'410.4
2017-Aug-11 05:29N 34°37' E 135°02'510.7
2017-Aug-11 05:00N 34°35' E 135°07'712.7
2017-Aug-11 04:29N 34°34' E 135°15'510.6
2017-Aug-11 04:00N 34°34' E 135°21'4 0.8
2017-Aug-10 22:47N 34°33' E 135°26'0 0.6
2017-Aug-10 22:30N 34°33' E 135°26'3 0.4
2017-Aug-10 15:49N 34°34' E 135°23'0 0.0
2017-Aug-10 15:25N 34°34' E 135°23'0 0.1
2017-Aug-10 14:25N 34°34' E 135°23'0 0.0
2017-Aug-10 12:13N 34°34' E 135°23'0 0.0
2017-Aug-10 10:06N 34°34' E 135°23'0 0.6
2017-Aug-10 10:00N 34°34' E 135°23'612.0
2017-Aug-10 09:30N 34°34' E 135°16'612.7
2017-Aug-10 09:00N 34°34' E 135°08'814.8
2017-Aug-10 08:29N 34°37' E 134°60'1113.6
2017-Aug-10 07:42N 34°40' E 134°47'9 1.2
2017-Aug-10 00:10N 34°38' E 134°58'315.7
2017-Aug-09 23:59N 34°37' E 135°01'511.1
2017-Aug-09 23:31N 34°32' E 135°04'1913.3
2017-Aug-09 22:03N 34°13' E 134°59'112.3
2017-Aug-09 21:58N 34°12' E 134°59'228 8.9
2017-Aug-08 20:20N 35°01' E 139°30'412.2
2017-Aug-08 20:00N 35°03' E 139°34'612.3
2017-Aug-08 19:30N 35°06' E 139°40'611.6
2017-Aug-08 19:00N 35°11' E 139°45'611.1
2017-Aug-08 18:28N 35°17' E 139°45'511.6
2017-Aug-08 18:00N 35°21' E 139°42'611.5
2017-Aug-08 17:30N 35°26' E 139°46'612.0
2017-Aug-08 17:00N 35°30' E 139°52'1 0.3
2017-Aug-08 11:55N 35°28' E 139°53'0 0.0
2017-Aug-08 11:13N 35°28' E 139°53'0 0.0
2017-Aug-08 10:59N 35°28' E 139°53'0 0.0
2017-Aug-08 10:23N 35°28' E 139°53'0 0.0
2017-Aug-08 09:58N 35°28' E 139°53'0 0.0
2017-Aug-08 09:29N 35°28' E 139°53'0 0.0
2017-Aug-08 09:00N 35°28' E 139°53'0 0.0
2017-Aug-08 08:25N 35°28' E 139°53'0 0.0
2017-Aug-08 08:00N 35°28' E 139°53'0 0.0
2017-Aug-08 07:30N 35°28' E 139°53'0 0.0
2017-Aug-08 06:51N 35°28' E 139°53'0 0.0
2017-Aug-08 06:30N 35°28' E 139°53'0 0.0
2017-Aug-08 05:51N 35°28' E 139°53'0 0.1
2017-Aug-08 05:27N 35°28' E 139°53'0 0.0
2017-Aug-08 04:59N 35°28' E 139°53'0 0.0
2017-Aug-08 04:28N 35°28' E 139°53'0 0.0
2017-Aug-08 04:00N 35°28' E 139°53'0 0.0
2017-Aug-08 03:30N 35°28' E 139°53'0 0.0
2017-Aug-08 02:59N 35°28' E 139°53'0 0.0
2017-Aug-08 02:29N 35°28' E 139°53'0 0.0
2017-Aug-08 01:39N 35°28' E 139°53'0 0.0
2017-Aug-08 01:29N 35°28' E 139°53'0 0.1
2017-Aug-08 00:41N 35°28' E 139°53'0 0.0
2017-Aug-08 00:09N 35°28' E 139°53'0 0.0
2017-Aug-07 23:50N 35°28' E 139°53'0 0.0
2017-Aug-07 23:27N 35°28' E 139°53'0 0.0
2017-Aug-07 21:59N 35°28' E 139°53'0 0.0
2017-Aug-07 21:30N 35°28' E 139°53'0 0.0
2017-Aug-07 20:57N 35°28' E 139°53'0 0.0
2017-Aug-07 20:30N 35°28' E 139°53'0 0.0
2017-Aug-07 20:00N 35°28' E 139°53'0 0.0
2017-Aug-07 19:15N 35°28' E 139°53'0 0.0
2017-Aug-07 18:46N 35°28' E 139°53'0 0.0
2017-Aug-07 18:29N 35°28' E 139°53'0 0.0
2017-Aug-07 17:54N 35°28' E 139°53'0 0.0
2017-Aug-07 17:21N 35°28' E 139°53'0 0.0
2017-Aug-07 16:50N 35°28' E 139°53'0 0.0
2017-Aug-07 16:23N 35°28' E 139°53'0 0.0
2017-Aug-07 16:00N 35°28' E 139°53'0 0.0
2017-Aug-07 15:29N 35°28' E 139°53'0 0.0
2017-Aug-07 14:58N 35°28' E 139°53'0 0.0
2017-Aug-07 14:28N 35°28' E 139°53'0 0.1
2017-Aug-07 13:53N 35°28' E 139°53'0 0.0
2017-Aug-07 13:24N 35°28' E 139°53'0 0.0
2017-Aug-07 12:02N 35°28' E 139°53'0 0.0
2017-Aug-07 11:57N 35°28' E 139°53'0 0.0
2017-Aug-07 11:30N 35°28' E 139°53'  
Track history (hours):
 
Tides and Currents Weather Stations Pressure Air Temp Water Temp Dewpoint Dewpoint Depression Visibility Wind Speed Wind Dir Waves Ship Positions

No.3tokuyomaru

Last reported at 2017-Aug-17 10:02 UTC. Time now 2017-Aug-19 01:57 UTC.
Position N 35°02' E 139°32'.

Length 67 m; draft 4.5 m.

Type: Tanker. MMSI: 431002151.

Date/timePositionNaut miles runAvg speedWind from/ knotsBaromVisibWave heightAir tempDewpointWater temp
2017-Aug-17 10:02N 35°02' E 139°32'112.7
2017-Aug-17 10:00N 35°03' E 139°33'612.9
2017-Aug-17 09:30N 35°06' E 139°40'713.0
2017-Aug-17 09:00N 35°11' E 139°45'711.9
2017-Aug-17 08:25N 35°18' E 139°44'512.7
2017-Aug-17 08:00N 35°23' E 139°42'612.5
2017-Aug-17 07:30N 35°27' E 139°48'612.8
2017-Aug-17 07:00N 35°31' E 139°54'2 0.1
2017-Aug-16 09:12N 35°28' E 139°54'210.8
2017-Aug-16 09:00N 35°28' E 139°51'611.3
2017-Aug-16 08:30N 35°24' E 139°46'611.5
2017-Aug-16 08:01N 35°19' E 139°44'510.9
2017-Aug-16 07:30N 35°14' E 139°47'510.7
2017-Aug-16 07:00N 35°09' E 139°45'510.9
2017-Aug-16 06:30N 35°04' E 139°42'611.3
2017-Aug-16 06:00N 35°01' E 139°36'  
2017-Aug-11 05:51N 34°37' E 134°57'410.4
2017-Aug-11 05:29N 34°37' E 135°02'510.7
2017-Aug-11 05:00N 34°35' E 135°07'712.7
2017-Aug-11 04:29N 34°34' E 135°15'510.6
2017-Aug-11 04:00N 34°34' E 135°21'4 0.8
2017-Aug-10 22:47N 34°33' E 135°26'0 0.6
2017-Aug-10 22:30N 34°33' E 135°26'3 0.4
2017-Aug-10 15:49N 34°34' E 135°23'0 0.0
2017-Aug-10 15:25N 34°34' E 135°23'0 0.1
2017-Aug-10 14:25N 34°34' E 135°23'0 0.0
2017-Aug-10 12:13N 34°34' E 135°23'0 0.0
2017-Aug-10 10:06N 34°34' E 135°23'0 0.6
2017-Aug-10 10:00N 34°34' E 135°23'612.0
2017-Aug-10 09:30N 34°34' E 135°16'612.7
2017-Aug-10 09:00N 34°34' E 135°08'814.8
2017-Aug-10 08:29N 34°37' E 134°60'1113.6
2017-Aug-10 07:42N 34°40' E 134°47'9 1.2
2017-Aug-10 00:10N 34°38' E 134°58'315.7
2017-Aug-09 23:59N 34°37' E 135°01'511.1
2017-Aug-09 23:31N 34°32' E 135°04'1913.3
2017-Aug-09 22:03N 34°13' E 134°59'112.3
2017-Aug-09 21:58N 34°12' E 134°59'228 8.9
2017-Aug-08 20:20N 35°01' E 139°30'412.2
2017-Aug-08 20:00N 35°03' E 139°34'612.3
2017-Aug-08 19:30N 35°06' E 139°40'611.6
2017-Aug-08 19:00N 35°11' E 139°45'611.1
2017-Aug-08 18:28N 35°17' E 139°45'511.6
2017-Aug-08 18:00N 35°21' E 139°42'611.5
2017-Aug-08 17:30N 35°26' E 139°46'612.0
2017-Aug-08 17:00N 35°30' E 139°52'1 0.3
2017-Aug-08 11:55N 35°28' E 139°53'0 0.0
2017-Aug-08 11:13N 35°28' E 139°53'0 0.0
2017-Aug-08 10:59N 35°28' E 139°53'0 0.0
2017-Aug-08 10:23N 35°28' E 139°53'0 0.0
2017-Aug-08 09:58N 35°28' E 139°53'0 0.0
2017-Aug-08 09:29N 35°28' E 139°53'0 0.0
2017-Aug-08 09:00N 35°28' E 139°53'0 0.0
2017-Aug-08 08:25N 35°28' E 139°53'0 0.0
2017-Aug-08 08:00N 35°28' E 139°53'0 0.0
2017-Aug-08 07:30N 35°28' E 139°53'0 0.0
2017-Aug-08 06:51N 35°28' E 139°53'0 0.0
2017-Aug-08 06:30N 35°28' E 139°53'0 0.0
2017-Aug-08 05:51N 35°28' E 139°53'0 0.1
2017-Aug-08 05:27N 35°28' E 139°53'0 0.0
2017-Aug-08 04:59N 35°28' E 139°53'0 0.0
2017-Aug-08 04:28N 35°28' E 139°53'0 0.0
2017-Aug-08 04:00N 35°28' E 139°53'0 0.0
2017-Aug-08 03:30N 35°28' E 139°53'0 0.0
2017-Aug-08 02:59N 35°28' E 139°53'0 0.0
2017-Aug-08 02:29N 35°28' E 139°53'0 0.0
2017-Aug-08 01:39N 35°28' E 139°53'0 0.0
2017-Aug-08 01:29N 35°28' E 139°53'0 0.1
2017-Aug-08 00:41N 35°28' E 139°53'0 0.0
2017-Aug-08 00:09N 35°28' E 139°53'0 0.0
2017-Aug-07 23:50N 35°28' E 139°53'0 0.0
2017-Aug-07 23:27N 35°28' E 139°53'0 0.0
2017-Aug-07 21:59N 35°28' E 139°53'0 0.0
2017-Aug-07 21:30N 35°28' E 139°53'0 0.0
2017-Aug-07 20:57N 35°28' E 139°53'0 0.0
2017-Aug-07 20:30N 35°28' E 139°53'0 0.0
2017-Aug-07 20:00N 35°28' E 139°53'0 0.0
2017-Aug-07 19:15N 35°28' E 139°53'0 0.0
2017-Aug-07 18:46N 35°28' E 139°53'0 0.0
2017-Aug-07 18:29N 35°28' E 139°53'0 0.0
2017-Aug-07 17:54N 35°28' E 139°53'0 0.0
2017-Aug-07 17:21N 35°28' E 139°53'0 0.0
2017-Aug-07 16:50N 35°28' E 139°53'0 0.0
2017-Aug-07 16:23N 35°28' E 139°53'0 0.0
2017-Aug-07 16:00N 35°28' E 139°53'0 0.0
2017-Aug-07 15:29N 35°28' E 139°53'0 0.0
2017-Aug-07 14:58N 35°28' E 139°53'0 0.0
2017-Aug-07 14:28N 35°28' E 139°53'0 0.1
2017-Aug-07 13:53N 35°28' E 139°53'0 0.0
2017-Aug-07 13:24N 35°28' E 139°53'0 0.0
2017-Aug-07 12:02N 35°28' E 139°53'0 0.0
2017-Aug-07 11:57N 35°28' E 139°53'0 0.0
2017-Aug-07 11:30N 35°28' E 139°53'  

Dump ship's entire track history